Time;durP1;ratioP1;P1;durP2;ratioP2;P2;SDS_P1;SDS_P2;PMS_P1;PMS_P2;Temp;Humidity;BMP_temperature;BMP_pressure;BME280_temperature;BME280_humidity;BME280_pressure;Samples;Min_cycle;Max_cycle;Signal;HPM_P1;HPM_P2
2023/03/15 00:01:06;;;;;;;;;;;;;;;3.17;53.41;99175.88;5003690;28;20644;-70
2023/03/15 00:03:36;;;;;;;0.10;0.10;;;;;;;3.07;53.68;99177.34;4972832;28;19925;-70
2023/03/15 00:06:02;;;;;;;0.10;0.10;;;;;;;3.04;54.00;99177.78;5004211;28;20564;-70
2023/03/15 00:08:28;;;;;;;0.10;0.10;;;;;;;3.06;54.03;99188.38;5001908;28;20054;-70
2023/03/15 00:10:54;;;;;;;0.10;0.10;;;;;;;3.02;54.14;99179.13;4997421;28;20522;-70
2023/03/15 00:13:20;;;;;;;0.70;0.10;;;;;;;2.95;54.61;99181.94;4983865;28;20061;-70
2023/03/15 00:15:50;;;;;;;0.10;0.10;;;;;;;2.87;54.84;99183.16;4986016;28;20532;-69
2023/03/15 00:18:17;;;;;;;0.10;0.10;;;;;;;2.84;55.16;99175.53;4984373;28;20058;-70
2023/03/15 00:20:44;;;;;;;0.10;0.10;;;;;;;2.82;55.32;99181.16;4986539;28;20477;-70
2023/03/15 00:23:10;;;;;;;0.10;0.10;;;;;;;2.87;55.29;99201.22;4989907;28;20546;-69
2023/03/15 00:25:36;;;;;;;0.10;0.10;;;;;;;2.91;55.02;99180.81;5004423;28;20050;-70
2023/03/15 00:28:03;;;;;;;0.10;0.10;;;;;;;2.90;55.22;99173.75;4984815;28;20464;-70
2023/03/15 00:30:31;;;;;;;0.10;0.10;;;;;;;2.79;55.50;99183.50;5004871;28;20139;-70
2023/03/15 00:32:59;;;;;;;0.10;0.10;;;;;;;2.82;55.56;99178.47;5004813;28;20104;-70
2023/03/15 00:35:25;;;;;;;0.10;0.10;;;;;;;2.81;55.74;99197.59;5003992;28;20050;-70
2023/03/15 00:37:54;;;;;;;0.10;0.10;;;;;;;2.81;55.85;99184.91;5002219;28;20505;-71
2023/03/15 00:40:21;;;;;;;0.10;0.10;;;;;;;2.72;56.20;99167.44;4983991;28;20488;-71
2023/03/15 00:42:49;;;;;;;0.10;0.10;;;;;;;2.80;56.06;99188.69;4966481;28;20092;-71
2023/03/15 00:45:16;;;;;;;0.10;0.10;;;;;;;2.84;56.16;99186.34;4985282;28;20617;-69
2023/03/15 00:47:42;;;;;;;0.10;0.10;;;;;;;2.95;55.99;99187.34;4988428;28;20133;-70
2023/03/15 00:50:10;;;;;;;0.10;0.10;;;;;;;3.04;55.66;99171.59;5000576;28;20333;-70
2023/03/15 00:52:37;;;;;;;0.10;0.10;;;;;;;3.04;55.92;99180.50;5001426;28;20077;-70
2023/03/15 00:55:04;;;;;;;0.10;0.10;;;;;;;3.07;55.93;99173.81;4986132;28;20042;-69
2023/03/15 00:57:33;;;;;;;0.10;0.10;;;;;;;3.07;55.89;99169.22;5003791;28;20042;-70
2023/03/15 01:00:03;;;;;;;0.10;0.10;;;;;;;3.10;55.98;99166.03;4992842;28;20081;-70
2023/03/15 01:02:30;;;;;;;0.10;0.10;;;;;;;3.13;56.00;99167.47;4987613;28;20158;-70
2023/03/15 01:04:56;;;;;;;0.10;0.10;;;;;;;3.15;56.10;99168.03;4998327;28;20046;-70
2023/03/15 01:07:23;;;;;;;0.13;0.10;;;;;;;3.17;56.29;99160.50;4984476;28;20112;-70
2023/03/15 01:09:50;;;;;;;0.10;0.10;;;;;;;3.21;56.28;99171.66;4970741;28;20046;-69
2023/03/15 01:12:16;;;;;;;0.10;0.10;;;;;;;3.18;56.41;99174.81;5003270;28;20064;-70
2023/03/15 01:14:42;;;;;;;0.10;0.10;;;;;;;3.05;56.57;99159.72;5004373;28;20068;-71
2023/03/15 01:17:08;;;;;;;0.10;0.10;;;;;;;3.14;56.67;99169.09;4999617;28;20046;-69
2023/03/15 01:19:34;;;;;;;0.10;0.10;;;;;;;3.15;56.80;99172.59;4986595;28;20116;-70
2023/03/15 01:22:01;;;;;;;0.10;0.10;;;;;;;3.18;57.08;99175.66;4986480;28;20048;-69
2023/03/15 01:24:28;;;;;;;0.10;0.10;;;;;;;3.18;57.09;99189.16;5000505;28;20575;-70
2023/03/15 01:26:54;;;;;;;0.10;0.10;;;;;;;3.16;57.20;99169.66;5016271;28;20054;-70
2023/03/15 01:29:20;;;;;;;0.10;0.10;;;;;;;3.14;57.18;99171.78;5002696;28;20426;-71
2023/03/15 01:31:47;;;;;;;0.10;0.10;;;;;;;3.16;57.49;99172.38;4996446;28;20084;-71
2023/03/15 01:34:13;;;;;;;0.10;0.10;;;;;;;3.15;57.53;99172.59;4984688;28;20046;-69
2023/03/15 01:36:39;;;;;;;0.10;0.10;;;;;;;3.15;57.58;99170.72;4997920;28;20467;-70
2023/03/15 01:39:05;;;;;;;0.10;0.10;;;;;;;3.14;57.66;99171.78;5004266;28;20045;-70
2023/03/15 01:41:42;;;;;;;0.10;0.10;;;;;;;3.17;57.70;99189.38;4984152;28;20515;-71
2023/03/15 01:44:12;;;;;;;0.28;0.10;;;;;;;3.15;57.76;99181.53;4990521;28;20133;-70
2023/03/15 01:46:38;;;;;;;0.10;0.10;;;;;;;3.14;58.06;99179.91;4999034;28;20054;-70
2023/03/15 01:49:22;;;;;;;0.10;0.10;;;;;;;3.14;58.02;99163.69;4981869;28;20054;-72
2023/03/15 01:51:53;;;;;;;0.10;0.10;;;;;;;3.12;58.29;99174.72;4982019;28;20096;-70
2023/03/15 01:54:25;;;;;;;0.10;0.10;;;;;;;3.19;58.20;99163.78;4983902;28;20050;-71
2023/03/15 01:56:58;;;;;;;0.10;0.10;;;;;;;3.19;58.25;99162.94;4981931;28;20074;-70
2023/03/15 01:59:29;;;;;;;0.20;0.15;;;;;;;3.18;58.16;99167.53;4965772;28;20136;-71
2023/03/15 02:01:55;;;;;;;0.10;0.10;;;;;;;3.16;58.44;99174.25;4981840;28;20421;-71
2023/03/15 02:04:27;;;;;;;0.10;0.10;;;;;;;3.14;58.43;99168.25;4992358;28;20050;-71
2023/03/15 02:06:57;;;;;;;0.10;0.10;;;;;;;3.21;58.42;99174.34;5002313;28;20545;-70
2023/03/15 02:09:31;;;;;;;0.10;0.10;;;;;;;3.23;58.35;99177.63;5001374;28;20075;-70
2023/03/15 02:11:59;;;;;;;0.10;0.10;;;;;;;3.24;58.49;99174.66;4984030;28;20060;-71
2023/03/15 02:14:26;;;;;;;0.10;0.10;;;;;;;3.28;58.31;99180.41;4978132;28;20073;-70
2023/03/15 02:16:52;;;;;;;;;;;;;;;3.30;58.31;99174.78;4998775;28;20506;-72
2023/03/15 02:19:32;;;;;;;0.10;0.10;;;;;;;3.28;58.27;99185.00;5000629;28;19932;-70
2023/03/15 02:22:04;;;;;;;0.10;0.10;;;;;;;3.28;58.41;99183.13;5000343;28;20042;-71
2023/03/15 02:24:37;;;;;;;0.15;0.10;;;;;;;3.23;58.36;99191.94;5023192;28;20057;-70
2023/03/15 02:27:05;;;;;;;0.10;0.10;;;;;;;3.28;58.60;99183.13;5001085;28;20046;-70
2023/03/15 02:29:32;;;;;;;0.10;0.10;;;;;;;3.28;58.46;99179.59;4999356;28;20046;-69
2023/03/15 02:31:59;;;;;;;0.10;0.10;;;;;;;3.12;58.83;99168.50;5001556;28;20600;-69
2023/03/15 02:34:25;;;;;;;0.10;0.10;;;;;;;3.24;58.66;99180.06;4999571;28;20052;-69
2023/03/15 02:36:52;;;;;;;0.10;0.10;;;;;;;3.21;58.91;99183.25;5001294;28;20041;-69
2023/03/15 02:39:20;;;;;;;0.10;0.10;;;;;;;3.19;58.83;99185.41;5003885;28;20057;-69
2023/03/15 02:41:51;;;;;;;0.10;0.10;;;;;;;3.09;59.02;99166.28;5003180;28;20053;-69
2023/03/15 02:44:21;;;;;;;0.10;0.10;;;;;;;3.14;59.24;99190.72;5001139;28;20513;-70
2023/03/15 02:46:52;;;;;;;0.10;0.10;;;;;;;3.07;59.33;99168.41;4998132;28;20131;-70
2023/03/15 02:49:25;;;;;;;0.10;0.10;;;;;;;3.09;59.52;99177.91;4981400;28;20497;-69
2023/03/15 02:51:52;;;;;;;0.10;0.10;;;;;;;3.07;59.58;99184.59;4986405;28;20057;-70
2023/03/15 02:54:18;;;;;;;0.10;0.10;;;;;;;3.05;59.60;99176.75;5000650;28;20054;-70
2023/03/15 02:56:44;;;;;;;0.10;0.10;;;;;;;3.02;59.73;99188.03;4998497;28;20051;-70
2023/03/15 02:59:11;;;;;;;0.10;0.10;;;;;;;2.97;59.81;99196.03;4985017;28;20402;-69
2023/03/15 03:01:38;;;;;;;0.20;0.10;;;;;;;2.91;60.17;99186.19;4981989;28;20057;-70
2023/03/15 03:04:06;;;;;;;0.10;0.10;;;;;;;2.83;60.46;99176.59;4982418;28;20522;-69
2023/03/15 03:06:32;;;;;;;0.20;0.20;;;;;;;2.78;60.69;99171.06;4984150;28;20046;-69
2023/03/15 03:09:03;;;;;;;0.10;0.10;;;;;;;2.73;60.94;99179.06;4996965;28;20335;-69
2023/03/15 03:11:30;;;;;;;0.10;0.10;;;;;;;2.67;61.21;99192.47;4983116;28;20050;-70
2023/03/15 03:13:56;;;;;;;0.10;0.10;;;;;;;2.64;61.21;99184.03;5000457;28;20501;-70
2023/03/15 03:16:23;;;;;;;0.10;0.10;;;;;;;2.63;61.47;99183.19;4984271;28;20403;-70
2023/03/15 03:18:50;;;;;;;0.10;0.10;;;;;;;2.64;61.14;99176.72;5000403;28;20062;-70
2023/03/15 03:21:18;;;;;;;;;;;;;;;2.67;61.21;99181.69;5000715;28;20153;-70
2023/03/15 03:23:45;;;;;;;0.10;0.10;;;;;;;2.65;61.26;99182.97;5000655;28;19925;-70
2023/03/15 03:26:16;;;;;;;0.10;0.10;;;;;;;2.59;61.45;99176.63;5001631;28;20088;-70
2023/03/15 03:28:45;;;;;;;0.10;0.10;;;;;;;2.54;61.77;99179.22;5026244;28;20037;-71
2023/03/15 03:31:15;;;;;;;;;;;;;;;2.55;61.67;99170.88;5001905;28;20064;-71
2023/03/15 03:33:42;;;;;;;0.10;0.10;;;;;;;2.54;61.72;99214.31;4999697;28;19925;-71
2023/03/15 03:36:08;;;;;;;0.10;0.10;;;;;;;2.48;61.86;99164.81;5001515;28;20042;-71
2023/03/15 03:38:35;;;;;;;0.10;0.10;;;;;;;2.51;61.75;99177.00;4997793;28;20306;-71
2023/03/15 03:41:02;;;;;;;0.10;0.10;;;;;;;2.50;61.96;99186.16;4996051;28;20076;-71
2023/03/15 03:43:30;;;;;;;0.10;0.10;;;;;;;2.48;61.89;99199.88;5001011;28;20077;-71
2023/03/15 03:45:57;;;;;;;0.10;0.10;;;;;;;2.47;62.01;99192.00;5000836;28;20060;-71
2023/03/15 03:48:23;;;;;;;0.10;0.10;;;;;;;2.52;61.89;99184.84;4984441;28;20046;-71
2023/03/15 03:50:49;;;;;;;0.10;0.10;;;;;;;2.57;61.57;99194.94;5002775;28;20153;-71
2023/03/15 03:53:16;;;;;;;0.32;0.10;;;;;;;2.55;61.57;99188.97;4999030;28;20054;-71
2023/03/15 03:55:45;;;;;;;0.10;0.10;;;;;;;2.55;61.48;99199.75;5003541;28;20531;-71
2023/03/15 03:58:14;;;;;;;0.17;0.17;;;;;;;2.53;61.55;99191.09;5004390;28;20041;-71
2023/03/15 04:00:46;;;;;;;0.10;0.10;;;;;;;2.55;61.60;99191.66;5002864;28;20421;-71
2023/03/15 04:03:13;;;;;;;0.10;0.10;;;;;;;2.61;61.51;99215.00;5001427;28;20073;-71
2023/03/15 04:05:44;;;;;;;0.20;0.20;;;;;;;2.60;60.99;99205.25;5019625;28;20267;-71
2023/03/15 04:08:15;;;;;;;0.10;0.10;;;;;;;2.58;61.73;99206.56;5020420;28;20096;-71
2023/03/15 04:10:43;;;;;;;0.13;0.13;;;;;;;2.58;61.69;99212.78;5004461;28;20054;-71
2023/03/15 04:13:09;;;;;;;0.10;0.10;;;;;;;2.54;61.76;99215.13;5019645;28;20058;-71
2023/03/15 04:15:36;;;;;;;0.10;0.10;;;;;;;2.59;61.67;99200.13;5002559;28;20445;-71
2023/03/15 04:18:04;;;;;;;0.10;0.10;;;;;;;2.60;61.45;99193.66;5002133;28;20082;-71
2023/03/15 04:20:35;;;;;;;0.10;0.10;;;;;;;2.50;61.66;99195.06;5003225;28;20412;-71
2023/03/15 04:23:02;;;;;;;0.10;0.10;;;;;;;2.62;61.50;99223.94;5002756;28;20112;-71
2023/03/15 04:25:50;;;;;;;0.20;0.20;;;;;;;2.51;61.53;99193.22;4985906;28;20525;-71
2023/03/15 04:28:36;;;;;;;0.13;0.13;;;;;;;2.61;61.16;99217.69;4962285;28;20054;-71
2023/03/15 04:31:26;;;;;;;0.10;0.10;;;;;;;2.63;61.21;99209.38;4993149;28;20136;-70
2023/03/15 04:34:05;;;;;;;0.20;0.20;;;;;;;2.57;61.25;99221.94;5012729;28;20045;-70
2023/03/15 04:36:53;;;;;;;0.10;0.10;;;;;;;2.60;61.15;99226.06;5002592;28;20041;-71
2023/03/15 04:39:44;;;;;;;0.10;0.10;;;;;;;2.58;61.20;99214.69;4902279;28;10001213;-69
2023/03/15 04:42:47;;;;;;;0.10;0.10;;;;;;;2.59;61.31;99219.81;5016636;28;21100;-69
2023/03/15 04:45:38;;;;;;;0.10;0.10;;;;;;;2.61;60.98;99231.19;5004878;28;20154;-69
2023/03/15 04:48:22;;;;;;;0.10;0.10;;;;;;;2.61;60.94;99233.09;5023809;28;20103;-69
2023/03/15 04:51:09;;;;;;;0.10;0.10;;;;;;;2.57;60.95;99231.91;4990613;28;20045;-69
2023/03/15 04:53:42;;;;;;;0.10;0.10;;;;;;;2.58;60.78;99226.28;4968810;28;20432;-69
2023/03/15 04:56:25;;;;;;;0.20;0.20;;;;;;;2.52;60.64;99233.44;4997242;28;20100;-69
2023/03/15 04:59:26;;;;;;;0.10;0.10;;;;;;;2.61;60.50;99227.69;4972089;28;20097;-70
2023/03/15 05:02:15;;;;;;;0.10;0.10;;;;;;;2.58;60.57;99228.97;4995877;28;20606;-70
2023/03/15 05:05:00;;;;;;;0.20;0.20;;;;;;;2.57;60.67;99237.28;5005847;28;20123;-71
2023/03/15 05:07:52;;;;;;;0.10;0.10;;;;;;;2.55;60.68;99240.25;5004479;28;20050;-70
2023/03/15 05:10:31;;;;;;;0.10;0.10;;;;;;;2.53;60.56;99245.06;5006177;28;20074;-70
2023/03/15 05:13:13;;;;;;;0.20;0.20;;;;;;;2.55;60.40;99245.66;5000834;28;20096;-70
2023/03/15 05:16:02;;;;;;;0.20;0.20;;;;;;;2.60;60.41;99256.56;5000144;28;20038;-69
2023/03/15 05:18:49;;;;;;;0.20;0.20;;;;;;;2.57;60.25;99248.94;4986131;28;20423;-70
2023/03/15 05:21:34;;;;;;;0.20;0.20;;;;;;;2.65;59.86;99263.94;4987921;28;20065;-70
2023/03/15 05:24:16;;;;;;;0.10;0.10;;;;;;;2.66;59.89;99263.72;4984026;28;20068;-70
2023/03/15 05:26:55;;;;;;;0.20;0.20;;;;;;;2.69;59.70;99257.84;4975415;28;20560;-71
2023/03/15 05:29:39;;;;;;;0.10;0.10;;;;;;;2.69;59.80;99275.91;4983623;28;20073;-70
2023/03/15 05:32:25;;;;;;;0.10;0.10;;;;;;;2.72;59.87;99297.03;4956813;28;20038;-69
2023/03/15 05:35:11;;;;;;;0.10;0.10;;;;;;;2.64;59.46;99246.91;4989075;28;20629;-70
2023/03/15 05:37:47;;;;;;;0.10;0.10;;;;;;;2.94;59.02;99272.94;4994846;28;20093;-70
2023/03/15 05:40:29;;;;;;;0.10;0.10;;;;;;;3.01;58.75;99282.81;5005365;28;20117;-71
2023/03/15 05:43:05;;;;;;;0.10;0.10;;;;;;;3.06;58.57;99278.34;5003264;28;20069;-70
2023/03/15 05:45:51;;;;;;;0.20;0.20;;;;;;;3.09;58.53;99283.28;4981872;28;20049;-70
2023/03/15 05:48:44;;;;;;;0.20;0.20;;;;;;;3.16;58.18;99290.41;4993066;28;20092;-70
2023/03/15 05:51:35;;;;;;;0.20;0.20;;;;;;;3.15;57.89;99292.31;4996240;28;20193;-70
2023/03/15 05:54:19;;;;;;;0.20;0.20;;;;;;;3.23;57.87;99296.53;5000418;28;20061;-70
2023/03/15 05:56:59;;;;;;;0.20;0.20;;;;;;;3.31;57.45;99298.84;4991256;28;20042;-70
2023/03/15 05:59:45;;;;;;;0.20;0.20;;;;;;;3.44;57.17;99295.06;4993595;28;20081;-70
2023/03/15 06:02:38;;;;;;;0.20;0.20;;;;;;;3.57;57.14;99299.34;4990706;28;20301;-70
2023/03/15 06:05:25;;;;;;;0.20;0.20;;;;;;;3.63;56.70;99306.50;4991465;28;20058;-70
2023/03/15 06:07:51;;;;;;;0.20;0.20;;;;;;;3.74;56.57;99298.59;4982504;28;20095;-69
2023/03/15 06:10:19;;;;;;;0.20;0.20;;;;;;;3.81;56.18;99324.41;4996642;28;20073;-70
2023/03/15 06:12:45;;;;;;;0.20;0.20;;;;;;;3.89;55.97;99306.16;4997482;28;20048;-73
2023/03/15 06:15:12;;;;;;;0.20;0.20;;;;;;;3.99;55.51;99309.03;4995497;28;20054;-71
2023/03/15 06:17:38;;;;;;;0.20;0.20;;;;;;;4.02;55.68;99305.84;4997258;28;20068;-71
2023/03/15 06:20:05;;;;;;;0.20;0.20;;;;;;;4.15;55.30;99306.59;4990494;28;20050;-71
2023/03/15 06:22:33;;;;;;;0.20;0.20;;;;;;;4.33;54.78;99303.66;4994570;28;20576;-71
2023/03/15 06:25:06;;;;;;;0.20;0.20;;;;;;;4.45;54.60;99329.84;4990629;28;20605;-70
2023/03/15 06:27:32;;;;;;;0.20;0.20;;;;;;;4.40;54.35;99319.75;4990108;28;20050;-70
2023/03/15 06:29:58;;;;;;;0.20;0.20;;;;;;;4.26;54.74;99313.84;4977886;28;20452;-71
2023/03/15 06:32:25;;;;;;;0.20;0.20;;;;;;;4.13;55.21;99300.63;4974314;28;20046;-71
2023/03/15 06:34:51;;;;;;;0.15;0.15;;;;;;;4.09;55.57;99320.06;4997524;28;20057;-70
2023/03/15 06:37:18;;;;;;;0.20;0.20;;;;;;;4.13;55.38;99331.19;4997252;28;20046;-70
2023/03/15 06:39:46;;;;;;;0.20;0.20;;;;;;;4.09;55.54;99311.09;4997254;28;20577;-70
2023/03/15 06:42:12;;;;;;;0.30;0.30;;;;;;;4.15;55.44;99358.03;4979710;28;20467;-70
2023/03/15 06:44:40;;;;;;;0.20;0.20;;;;;;;4.17;55.13;99318.84;4976736;28;20058;-70
2023/03/15 06:47:08;;;;;;;0.20;0.20;;;;;;;4.29;55.27;99331.47;4995189;28;20076;-70
2023/03/15 06:49:34;;;;;;;0.20;0.20;;;;;;;4.35;54.99;99344.03;4998542;28;20129;-70
2023/03/15 06:52:01;;;;;;;0.20;0.20;;;;;;;4.27;55.36;99369.63;4995172;28;20045;-70
2023/03/15 06:54:28;;;;;;;0.20;0.20;;;;;;;4.21;55.50;99366.00;4998512;28;20050;-70
2023/03/15 06:56:56;;;;;;;0.20;0.20;;;;;;;4.19;55.78;99319.41;5001425;28;20133;-70
2023/03/15 06:59:23;;;;;;;0.35;0.20;;;;;;;4.39;55.36;99335.19;5001250;28;20517;-70
2023/03/15 07:01:49;;;;;;;0.20;0.20;;;;;;;4.64;55.02;99330.44;4999927;28;20224;-70
2023/03/15 07:04:15;;;;;;;0.30;0.30;;;;;;;4.91;54.00;99319.72;4988227;28;20038;-69
2023/03/15 07:06:41;;;;;;;0.30;0.30;;;;;;;5.08;53.57;99352.22;5003749;28;20057;-69
2023/03/15 07:09:07;;;;;;;0.47;0.22;;;;;;;5.17;53.50;99339.06;5004053;28;20057;-70
2023/03/15 07:11:33;;;;;;;0.35;0.30;;;;;;;5.20;53.16;99306.03;5006385;28;20513;-69
2023/03/15 07:14:00;;;;;;;0.20;0.20;;;;;;;5.53;52.75;99330.53;5020163;28;20077;-68
2023/03/15 07:16:26;;;;;;;0.20;0.20;;;;;;;5.42;52.52;99316.03;4986368;28;20074;-68
2023/03/15 07:18:54;;;;;;;0.22;0.20;;;;;;;5.32;53.20;99322.16;4983864;28;20540;-69
2023/03/15 07:21:21;;;;;;;0.30;0.30;;;;;;;5.30;53.31;99337.84;4984659;28;20260;-68
2023/03/15 07:23:47;;;;;;;0.60;0.35;;;;;;;5.32;53.38;99343.84;4984519;28;20049;-68
2023/03/15 07:26:13;;;;;;;0.30;0.30;;;;;;;5.39;53.13;99335.53;4991928;28;20042;-68
2023/03/15 07:28:39;;;;;;;0.30;0.30;;;;;;;5.79;52.57;99341.69;5006023;28;20417;-68
2023/03/15 07:31:06;;;;;;;0.30;0.30;;;;;;;6.21;51.35;99348.38;5003226;28;20421;-68
2023/03/15 07:33:35;;;;;;;0.20;0.20;;;;;;;6.33;51.16;99346.34;5003824;28;20143;-68
2023/03/15 07:36:03;;;;;;;0.30;0.30;;;;;;;6.40;50.97;99346.13;5000057;28;20054;-68
2023/03/15 07:38:29;;;;;;;;;;;;;;;6.58;50.27;99358.50;5004412;28;20053;-68
2023/03/15 07:40:56;;;;;;;0.30;0.30;;;;;;;6.84;49.92;99358.69;4999009;28;19932;-72
2023/03/15 07:43:23;;;;;;;0.28;0.28;;;;;;;7.04;49.00;99392.56;5002256;28;20057;-69
2023/03/15 07:45:58;;;;;;;0.30;0.30;;;;;;;6.85;49.46;99354.88;4988612;28;20050;-69
2023/03/15 07:48:25;;;;;;;0.20;0.20;;;;;;;7.04;49.44;99363.44;5006607;28;20045;-70
2023/03/15 07:50:52;;;;;;;0.28;0.28;;;;;;;7.08;49.24;99380.06;5007042;28;20052;-68
2023/03/15 07:53:18;;;;;;;0.30;0.30;;;;;;;7.46;48.39;99366.41;5005919;28;20065;-68
2023/03/15 07:55:46;;;;;;;0.30;0.30;;;;;;;8.11;47.09;99396.03;5006734;28;20058;-68
2023/03/15 07:58:12;;;;;;;0.35;0.35;;;;;;;8.22;46.36;99356.03;5001900;28;20092;-68
2023/03/15 08:00:38;;;;;;;0.30;0.30;;;;;;;8.38;46.06;99370.50;5006121;28;20058;-70
2023/03/15 08:03:06;;;;;;;0.20;0.20;;;;;;;7.91;47.01;99359.50;5003794;28;20117;-68
2023/03/15 08:05:35;;;;;;;0.20;0.20;;;;;;;7.56;47.86;99382.75;5005194;28;20116;-68
2023/03/15 08:08:02;;;;;;;0.20;0.20;;;;;;;7.36;48.61;99376.16;5003777;28;20431;-70
2023/03/15 08:10:28;;;;;;;0.30;0.30;;;;;;;7.30;48.83;99377.22;5005458;28;20041;-68
2023/03/15 08:12:55;;;;;;;0.30;0.30;;;;;;;7.30;48.98;99373.66;5006679;28;20042;-69
2023/03/15 08:15:21;;;;;;;0.30;0.30;;;;;;;7.36;49.03;99373.44;5025282;28;21253;-70
2023/03/15 08:17:47;;;;;;;0.30;0.30;;;;;;;7.43;48.99;99366.94;5006661;28;20050;-71
2023/03/15 08:20:16;;;;;;;0.30;0.30;;;;;;;7.25;49.13;99352.69;5006096;28;20099;-68
2023/03/15 08:22:44;;;;;;;0.30;0.30;;;;;;;7.43;48.95;99375.09;5001332;28;20052;-70
2023/03/15 08:25:12;;;;;;;0.30;0.30;;;;;;;7.31;49.39;99378.03;5009346;28;20049;-68
2023/03/15 08:27:39;;;;;;;0.30;0.30;;;;;;;7.37;49.24;99374.25;5004142;28;20058;-68
2023/03/15 08:30:06;;;;;;;0.20;0.20;;;;;;;7.47;49.18;99376.22;5005172;28;20057;-68
2023/03/15 08:32:32;;;;;;;0.30;0.30;;;;;;;7.54;49.03;99368.63;5008353;28;20056;-68
2023/03/15 08:34:58;;;;;;;0.30;0.30;;;;;;;7.69;49.23;99386.09;5005687;28;20046;-68
2023/03/15 08:37:25;;;;;;;0.20;0.20;;;;;;;7.76;48.58;99378.53;5005213;28;20081;-70
2023/03/15 08:39:59;;;;;;;0.30;0.30;;;;;;;7.79;48.57;99386.16;5000052;28;20497;-70
2023/03/15 08:42:26;;;;;;;0.30;0.30;;;;;;;7.62;48.80;99380.88;5008518;28;21615;-70
2023/03/15 08:44:52;;;;;;;0.20;0.20;;;;;;;7.49;49.62;99390.38;5007109;28;20429;-70
2023/03/15 08:47:18;;;;;;;0.30;0.30;;;;;;;7.20;49.92;99402.44;5006746;28;20137;-70
2023/03/15 08:49:44;;;;;;;0.20;0.20;;;;;;;6.87;50.91;99373.66;5006879;28;20476;-68
2023/03/15 08:52:11;;;;;;;0.20;0.20;;;;;;;6.99;51.15;99392.50;5005999;28;20045;-68
2023/03/15 08:54:39;;;;;;;0.20;0.20;;;;;;;7.09;50.95;99373.53;5002752;28;20064;-68
2023/03/15 08:57:07;;;;;;;0.20;0.20;;;;;;;6.97;51.06;99389.22;5001404;28;20145;-70
2023/03/15 08:59:33;;;;;;;0.30;0.30;;;;;;;6.71;51.65;99391.72;5006727;28;20050;-68
2023/03/15 09:01:59;;;;;;;0.20;0.20;;;;;;;6.48;52.57;99394.56;5005883;28;20046;-68
2023/03/15 09:04:25;;;;;;;0.20;0.20;;;;;;;6.43;52.80;99386.34;5005776;28;20065;-68
2023/03/15 09:06:52;;;;;;;0.30;0.30;;;;;;;6.51;52.86;99401.34;5006014;28;20127;-69
2023/03/15 09:09:18;;;;;;;0.20;0.20;;;;;;;6.53;52.78;99366.59;5005465;28;20054;-68
2023/03/15 09:11:46;;;;;;;0.20;0.20;;;;;;;6.58;52.91;99374.81;4968312;28;20046;-68
2023/03/15 09:14:16;;;;;;;0.47;0.20;;;;;;;6.62;52.89;99380.53;5005056;28;20056;-70
2023/03/15 09:16:42;;;;;;;0.25;0.25;;;;;;;6.76;52.44;99376.28;5005552;28;20133;-68
2023/03/15 09:19:08;;;;;;;0.20;0.20;;;;;;;6.83;52.52;99367.94;5005488;28;20050;-69
2023/03/15 09:21:34;;;;;;;0.20;0.20;;;;;;;6.83;52.51;99378.00;5005089;28;20049;-68
2023/03/15 09:24:01;;;;;;;0.20;0.20;;;;;;;6.88;52.32;99387.00;5007108;28;20065;-70
2023/03/15 09:26:27;;;;;;;0.20;0.20;;;;;;;6.83;52.74;99372.56;5005885;28;20037;-70
2023/03/15 09:28:53;;;;;;;0.20;0.20;;;;;;;6.80;53.11;99369.28;5021610;28;20050;-70
2023/03/15 09:31:21;;;;;;;0.35;0.30;;;;;;;6.84;53.05;99375.00;5004417;28;20588;-70
2023/03/15 09:33:48;;;;;;;0.20;0.20;;;;;;;6.93;52.81;99378.03;5001650;28;20503;-70
2023/03/15 09:36:14;;;;;;;0.20;0.20;;;;;;;6.89;52.70;99385.94;5000465;28;20042;-70
2023/03/15 09:38:42;;;;;;;0.20;0.20;;;;;;;6.78;53.16;99363.25;5000223;28;20050;-70
2023/03/15 09:41:18;;;;;;;0.28;0.28;;;;;;;6.82;53.34;99360.84;5003930;28;20050;-70
2023/03/15 09:44:13;;;;;;;0.25;0.25;;;;;;;7.03;52.72;99361.00;5000888;28;20404;-70
2023/03/15 09:46:49;;;;;;;0.20;0.20;;;;;;;7.24;52.26;99361.94;5000656;28;20061;-70
2023/03/15 09:49:24;;;;;;;0.20;0.20;;;;;;;7.44;51.61;99352.25;4990059;28;20041;-70
2023/03/15 09:51:58;;;;;;;0.20;0.20;;;;;;;7.49;51.92;99349.56;5000556;28;20053;-70
2023/03/15 09:54:31;;;;;;;0.38;0.20;;;;;;;7.63;51.31;99355.31;4986864;28;20058;-70
2023/03/15 09:57:01;;;;;;;0.22;0.22;;;;;;;7.73;50.99;99360.81;5004471;28;20046;-70
2023/03/15 09:59:31;;;;;;;0.20;0.20;;;;;;;7.93;50.44;99360.06;5002305;28;20513;-70
2023/03/15 10:02:03;;;;;;;0.20;0.20;;;;;;;7.97;50.32;99356.81;4988505;28;20050;-71
2023/03/15 10:04:33;;;;;;;0.30;0.30;;;;;;;7.98;50.24;99350.25;5003267;28;20056;-70
2023/03/15 10:07:02;;;;;;;0.20;0.20;;;;;;;8.14;50.27;99340.25;4983247;28;20092;-68
2023/03/15 10:09:34;;;;;;;0.30;0.30;;;;;;;8.53;49.46;99339.75;5001925;28;20054;-68
2023/03/15 10:12:04;;;;;;;0.30;0.30;;;;;;;8.91;48.77;99344.91;5019798;28;20509;-68
2023/03/15 10:14:51;;;;;;;0.50;0.50;;;;;;;9.84;47.07;99343.81;5002931;28;20054;-69
2023/03/15 10:17:28;;;;;;;0.30;0.30;;;;;;;10.60;44.84;99335.38;5005667;28;20053;-68
2023/03/15 10:20:00;;;;;;;0.50;0.50;;;;;;;11.06;43.43;99343.16;5005100;28;20050;-68
2023/03/15 10:22:33;;;;;;;0.50;0.50;;;;;;;11.47;42.09;99354.75;5002485;28;20532;-71
2023/03/15 10:25:06;;;;;;;0.60;0.60;;;;;;;11.62;42.04;99318.97;5001359;28;20107;-69
2023/03/15 10:27:40;;;;;;;0.50;0.50;;;;;;;12.10;40.44;99343.88;5003489;28;20050;-68
2023/03/15 10:30:15;;;;;;;0.50;0.50;;;;;;;11.89;40.87;99344.13;5003003;28;20085;-68
2023/03/15 10:32:45;;;;;;;0.40;0.40;;;;;;;11.60;41.48;99345.84;5005217;28;20050;-69
2023/03/15 10:35:14;;;;;;;0.50;0.50;;;;;;;11.20;42.30;99356.97;5001636;28;20160;-68
2023/03/15 10:37:41;;;;;;;0.30;0.30;;;;;;;10.95;43.03;99343.56;5003491;28;20053;-68
2023/03/15 10:40:14;;;;;;;0.60;0.60;;;;;;;10.75;43.39;99350.84;5006912;28;20486;-68
2023/03/15 10:42:42;;;;;;;0.60;0.60;;;;;;;11.50;42.43;99365.16;5004144;28;20057;-68
2023/03/15 10:45:18;;;;;;;0.60;0.60;;;;;;;12.36;40.74;99363.47;5004977;28;20042;-70
2023/03/15 10:47:46;;;;;;;0.45;0.45;;;;;;;12.60;40.00;99352.41;4997419;28;20046;-71
2023/03/15 10:50:18;;;;;;;0.30;0.30;;;;;;;12.06;40.74;99368.28;5002862;28;20092;-71
2023/03/15 10:52:45;;;;;;;0.30;0.30;;;;;;;10.98;42.78;99365.66;5004986;28;20045;-70
2023/03/15 10:55:14;;;;;;;0.30;0.30;;;;;;;10.24;44.38;99347.38;5004006;28;20054;-71
2023/03/15 10:57:51;;;;;;;0.30;0.30;;;;;;;10.19;45.07;99341.94;5003343;28;20053;-68
2023/03/15 11:00:28;;;;;;;0.30;0.30;;;;;;;10.24;44.91;99350.09;5007494;28;20535;-68
2023/03/15 11:03:04;;;;;;;0.30;0.30;;;;;;;10.38;44.40;99349.47;5006330;28;20517;-68
2023/03/15 11:05:31;;;;;;;0.30;0.30;;;;;;;10.38;44.43;99353.03;5008835;28;20418;-68
2023/03/15 11:08:00;;;;;;;0.50;0.50;;;;;;;10.52;44.62;99357.84;5005895;28;20073;-68
2023/03/15 11:10:28;;;;;;;0.50;0.50;;;;;;;11.49;42.78;99358.03;5007905;28;20054;-68
2023/03/15 11:13:10;;;;;;;0.63;0.63;;;;;;;12.31;41.04;99349.88;5003853;28;20054;-69
2023/03/15 11:15:37;;;;;;;0.60;0.60;;;;;;;13.22;39.33;99364.25;5005631;28;20534;-70
2023/03/15 11:18:06;;;;;;;0.60;0.60;;;;;;;13.73;37.87;99358.91;5008057;28;20054;-71
2023/03/15 11:20:36;;;;;;;0.90;0.90;;;;;;;13.82;37.90;99350.75;5007949;28;20590;-71
2023/03/15 11:23:13;;;;;;;0.90;0.90;;;;;;;14.61;36.37;99343.97;5006547;28;20111;-68
2023/03/15 11:25:39;;;;;;;0.90;0.90;;;;;;;14.63;36.19;99331.84;5004362;28;20052;-71
2023/03/15 11:28:05;;;;;;;0.70;0.70;;;;;;;14.72;36.08;99338.25;5004056;28;20038;-69
2023/03/15 11:30:31;;;;;;;0.60;0.60;;;;;;;14.49;36.11;99351.97;5007710;28;20057;-69
2023/03/15 11:33:04;;;;;;;0.50;0.50;;;;;;;13.94;37.08;99356.53;5003316;28;20056;-69
2023/03/15 11:35:39;;;;;;;0.40;0.40;;;;;;;13.22;38.49;99356.03;5007163;28;20060;-69
2023/03/15 11:38:12;;;;;;;0.50;0.50;;;;;;;12.30;40.34;99342.75;5005327;28;20053;-71
2023/03/15 11:40:42;;;;;;;0.40;0.40;;;;;;;12.28;40.23;99351.25;5005845;28;20524;-71
2023/03/15 11:43:12;;;;;;;0.60;0.60;;;;;;;11.82;41.21;99355.44;5002704;28;20540;-71
2023/03/15 11:45:43;;;;;;;0.60;0.60;;;;;;;12.01;41.13;99336.28;5004885;28;20041;-71
2023/03/15 11:48:35;;;;;;;0.70;0.70;;;;;;;12.27;40.51;99348.84;5005024;28;20053;-72
2023/03/15 11:51:04;;;;;;;0.80;0.80;;;;;;;12.97;39.37;99365.53;5002950;28;20069;-71
2023/03/15 11:53:34;;;;;;;0.90;0.90;;;;;;;13.64;37.93;99367.03;5003300;28;20768;-71
2023/03/15 11:56:19;;;;;;;0.90;0.90;;;;;;;13.96;37.28;99347.97;5005571;28;20065;-72
2023/03/15 11:59:00;;;;;;;1.10;1.10;;;;;;;13.65;37.82;99352.19;5005233;28;20176;-69